Time;durP1;ratioP1;P1;durP2;ratioP2;P2;SDS_P1;SDS_P2;PMS_P1;PMS_P2;Temp;Humidity;BMP_temperature;BMP_pressure;BME280_temperature;BME280_humidity;BME280_pressure;Samples;Min_cycle;Max_cycle;Signal;HPM_P1;HPM_P2
2023/06/20 00:01:48;;;;;;;17.00;10.85;;;17.60;99.90;;;;;;5050579;28;20504;-76
2023/06/20 00:04:14;;;;;;;19.48;11.85;;;17.60;99.90;;;;;;5032729;28;20845;-76
2023/06/20 00:06:39;;;;;;;14.45;10.80;;;17.60;99.90;;;;;;5050284;28;20052;-76
2023/06/20 00:09:05;;;;;;;21.50;12.02;;;17.60;99.90;;;;;;5032430;28;20057;-76
2023/06/20 00:11:30;;;;;;;19.35;12.48;;;17.60;99.90;;;;;;5050460;28;20040;-76
2023/06/20 00:13:57;;;;;;;18.80;11.32;;;17.60;99.90;;;;;;5032691;28;20079;-77
2023/06/20 00:16:24;;;;;;;16.40;11.80;;;17.60;99.90;;;;;;5050056;28;20155;-75
2023/06/20 00:18:53;;;;;;;20.08;12.82;;;17.60;99.90;;;;;;5032369;28;20052;-76
2023/06/20 00:21:25;;;;;;;18.10;12.25;;;17.60;99.90;;;;;;5032341;28;20049;-75
2023/06/20 00:23:52;;;;;;;19.95;11.82;;;17.50;99.90;;;;;;5032353;28;20048;-76
2023/06/20 00:26:17;;;;;;;16.55;11.95;;;17.50;99.90;;;;;;5050172;28;20033;-77
2023/06/20 00:28:43;;;;;;;18.52;11.90;;;17.50;99.90;;;;;;5032164;28;20056;-76
2023/06/20 00:31:09;;;;;;;19.65;12.02;;;17.50;99.90;;;;;;5049943;28;20045;-76
2023/06/20 00:33:36;;;;;;;18.30;12.25;;;17.50;99.90;;;;;;5050406;28;20052;-75
2023/06/20 00:36:02;;;;;;;19.33;11.98;;;17.50;99.90;;;;;;5031948;28;20057;-75
2023/06/20 00:38:29;;;;;;;21.50;11.90;;;17.50;99.90;;;;;;5050085;28;20095;-76
2023/06/20 00:40:55;;;;;;;20.40;12.40;;;17.50;99.90;;;;;;5032347;28;20076;-76
2023/06/20 00:43:21;;;;;;;16.95;11.15;;;17.50;99.90;;;;;;5050417;28;20809;-76
2023/06/20 00:45:46;;;;;;;13.90;11.00;;;17.40;99.90;;;;;;5050353;28;20079;-76
2023/06/20 00:48:12;;;;;;;18.25;12.75;;;17.40;99.90;;;;;;5049997;28;20476;-75
2023/06/20 00:50:38;;;;;;;16.52;12.82;;;17.50;99.90;;;;;;5049884;28;20044;-76
2023/06/20 00:53:05;;;;;;;17.70;10.98;;;17.50;99.90;;;;;;5050016;28;20129;-76
2023/06/20 00:55:33;;;;;;;20.63;13.07;;;17.40;99.90;;;;;;5035481;28;20044;-75
2023/06/20 00:58:01;;;;;;;20.23;13.82;;;17.40;99.90;;;;;;5035794;28;20079;-76
2023/06/20 01:00:29;;;;;;;20.92;14.25;;;17.40;99.90;;;;;;5035670;28;20075;-75
2023/06/20 01:03:01;;;;;;;18.38;12.50;;;17.40;99.90;;;;;;5035829;28;20053;-76
2023/06/20 01:05:28;;;;;;;18.58;13.57;;;17.40;99.90;;;;;;5053594;28;20128;-76
2023/06/20 01:08:18;;;;;;;20.73;13.48;;;17.50;99.90;;;;;;5035545;28;20056;-76
2023/06/20 01:11:02;;;;;;;20.17;13.55;;;17.50;99.90;;;;;;5027958;28;20120;-75
2023/06/20 01:13:40;;;;;;;19.25;13.35;;;17.50;99.90;;;;;;5035457;28;20448;-75
2023/06/20 01:16:17;;;;;;;21.17;14.00;;;17.50;99.90;;;;;;5053344;28;20056;-76
2023/06/20 01:18:49;;;;;;;18.90;13.88;;;17.50;99.90;;;;;;5035299;28;20510;-76
2023/06/20 01:21:29;;;;;;;21.98;14.45;;;17.50;99.90;;;;;;5053404;28;20137;-76
2023/06/20 01:24:03;;;;;;;23.48;15.02;;;17.50;99.90;;;;;;5045315;28;20049;-75
2023/06/20 01:26:45;;;;;;;20.58;14.40;;;17.50;99.90;;;;;;5035212;28;20159;-76
2023/06/20 01:29:26;;;;;;;19.60;13.73;;;17.50;99.90;;;;;;5046637;28;20069;-76
2023/06/20 01:31:55;;;;;;;23.23;14.10;;;17.50;99.90;;;;;;5052703;28;20098;-76
2023/06/20 01:34:27;;;;;;;18.85;12.98;;;17.50;99.90;;;;;;5035417;28;20439;-76
2023/06/20 01:37:00;;;;;;;17.83;12.65;;;17.40;99.90;;;;;;5034893;28;20106;-76
2023/06/20 01:39:40;;;;;;;18.23;12.43;;;17.50;99.90;;;;;;5053172;28;20045;-77
2023/06/20 01:42:06;;;;;;;17.20;11.85;;;17.50;99.90;;;;;;5052519;28;20067;-76
2023/06/20 01:44:33;;;;;;;20.95;12.45;;;17.50;99.90;;;;;;5034942;28;20045;-76
2023/06/20 01:47:02;;;;;;;17.98;12.50;;;17.40;99.90;;;;;;5052695;28;20041;-76
2023/06/20 01:49:28;;;;;;;16.00;12.10;;;17.40;99.90;;;;;;5034921;28;20048;-76
2023/06/20 01:51:56;;;;;;;20.55;12.30;;;17.40;99.90;;;;;;5034719;28;20197;-76
2023/06/20 01:54:24;;;;;;;17.73;12.10;;;17.40;99.90;;;;;;5052580;28;20049;-76
2023/06/20 01:56:51;;;;;;;16.45;11.18;;;17.40;99.90;;;;;;5052568;28;20095;-76
2023/06/20 01:59:19;;;;;;;16.35;11.65;;;17.40;99.90;;;;;;5052425;28;20048;-76
2023/06/20 02:01:47;;;;;;;22.95;12.30;;;17.40;99.90;;;;;;5034659;28;20127;-75
2023/06/20 02:04:15;;;;;;;18.38;11.55;;;17.40;99.90;;;;;;5052311;28;20041;-76
2023/06/20 02:06:42;;;;;;;20.95;12.23;;;17.40;99.90;;;;;;5033166;28;20049;-75
2023/06/20 02:09:09;;;;;;;17.98;11.70;;;17.40;99.90;;;;;;5034581;28;20124;-76
2023/06/20 02:11:36;;;;;;;18.50;11.32;;;17.40;99.90;;;;;;5052253;28;20041;-76
2023/06/20 02:14:02;;;;;;;16.00;11.10;;;17.50;99.90;;;;;;5052124;28;20079;-75
2023/06/20 02:16:30;;;;;;;14.15;10.35;;;17.40;99.90;;;;;;5034411;28;20041;-75
2023/06/20 02:18:56;;;;;;;17.77;10.98;;;17.50;99.90;;;;;;5052076;28;20065;-76
2023/06/20 02:21:27;;;;;;;16.98;11.32;;;17.50;99.90;;;;;;5034415;28;20452;-77
2023/06/20 02:23:54;;;;;;;20.50;11.82;;;17.50;99.90;;;;;;5026005;28;20052;-76
2023/06/20 02:26:25;;;;;;;18.10;11.32;;;17.50;99.90;;;;;;5052326;28;20037;-76
2023/06/20 02:28:57;;;;;;;16.15;11.63;;;17.40;99.90;;;;;;5051716;28;20589;-75
2023/06/20 02:31:24;;;;;;;15.27;11.25;;;17.50;99.90;;;;;;5051817;28;20079;-75
2023/06/20 02:33:54;;;;;;;19.10;11.40;;;17.40;99.90;;;;;;5033837;28;20056;-76
2023/06/20 02:36:25;;;;;;;22.08;12.43;;;17.50;99.90;;;;;;5034120;28;20049;-76
2023/06/20 02:38:52;;;;;;;16.77;11.60;;;17.40;99.90;;;;;;5033695;28;20059;-75
2023/06/20 02:41:19;;;;;;;18.10;10.90;;;17.50;99.90;;;;;;5033896;28;20121;-75
2023/06/20 02:43:45;;;;;;;19.30;11.70;;;17.40;99.90;;;;;;5033515;28;20053;-76
2023/06/20 02:46:28;;;;;;;15.27;10.88;;;17.40;99.90;;;;;;5051604;28;20044;-75
2023/06/20 02:49:03;;;;;;;16.63;10.95;;;17.50;99.90;;;;;;5051588;28;20133;-76
2023/06/20 02:51:36;;;;;;;14.57;10.18;;;17.50;99.90;;;;;;5044556;28;20045;-76
2023/06/20 02:54:09;;;;;;;18.08;10.35;;;17.40;99.90;;;;;;5051539;28;20057;-75
2023/06/20 02:56:38;;;;;;;16.75;11.63;;;17.40;99.90;;;;;;5033788;28;20049;-75
2023/06/20 02:59:06;;;;;;;19.38;12.20;;;17.40;99.90;;;;;;5051126;28;20040;-75
2023/06/20 03:01:33;;;;;;;17.10;11.82;;;17.40;99.90;;;;;;5026000;28;20037;-74
2023/06/20 03:04:04;;;;;;;16.55;11.55;;;17.40;99.90;;;;;;5033774;28;20056;-76
2023/06/20 03:06:30;;;;;;;17.98;11.52;;;17.40;99.90;;;;;;5033523;28;20049;-75
2023/06/20 03:08:59;;;;;;;19.52;11.07;;;17.40;99.90;;;;;;5033355;28;20382;-75
2023/06/20 03:11:25;;;;;;;16.33;11.23;;;17.40;99.90;;;;;;5051052;28;20048;-75
2023/06/20 03:13:51;;;;;;;18.02;12.38;;;17.40;99.90;;;;;;5051253;28;20029;-76
2023/06/20 03:16:16;;;;;;;17.48;12.20;;;17.40;99.90;;;;;;5033160;28;20575;-76
2023/06/20 03:18:42;;;;;;;15.82;11.95;;;17.40;99.90;;;;;;5051267;28;20381;-76
2023/06/20 03:21:08;;;;;;;17.85;12.32;;;17.40;99.90;;;;;;5033511;28;20512;-76
2023/06/20 03:23:33;;;;;;;23.73;12.93;;;17.40;99.90;;;;;;5051131;28;20114;-76
2023/06/20 03:25:59;;;;;;;20.65;12.18;;;17.40;99.90;;;;;;5033292;28;20075;-76
2023/06/20 03:28:25;;;;;;;21.50;13.30;;;17.40;99.90;;;;;;5015792;28;20064;-75
2023/06/20 03:30:52;;;;;;;18.73;12.20;;;17.40;99.90;;;;;;5050631;28;20118;-75
2023/06/20 03:33:17;;;;;;;18.73;12.35;;;17.40;99.90;;;;;;5032664;28;20114;-76
2023/06/20 03:35:43;;;;;;;17.25;11.68;;;17.50;99.90;;;;;;5032082;28;20464;-75
2023/06/20 03:38:09;;;;;;;18.08;12.55;;;17.40;99.90;;;;;;5032983;28;20041;-74
2023/06/20 03:40:35;;;;;;;23.27;11.38;;;17.40;99.90;;;;;;5032807;28;20051;-76
2023/06/20 03:43:00;;;;;;;19.65;12.77;;;17.40;99.90;;;;;;5032604;28;20041;-76
2023/06/20 03:45:26;;;;;;;17.02;12.10;;;17.50;99.90;;;;;;5050218;28;20095;-77
2023/06/20 03:47:51;;;;;;;16.70;10.90;;;17.40;99.90;;;;;;5032788;28;20455;-75
2023/06/20 03:50:17;;;;;;;18.00;11.43;;;17.50;99.90;;;;;;5032628;28;20087;-76
2023/06/20 03:52:43;;;;;;;15.75;11.27;;;17.50;99.90;;;;;;5050434;28;20056;-75
2023/06/20 03:55:08;;;;;;;20.23;11.73;;;17.50;99.90;;;;;;5050335;28;20083;-75
2023/06/20 03:57:34;;;;;;;16.70;11.65;;;17.50;99.90;;;;;;5050337;28;20520;-75
2023/06/20 04:00:04;;;;;;;22.75;12.15;;;17.40;99.90;;;;;;5032434;28;20049;-76
2023/06/20 04:02:30;;;;;;;17.23;12.23;;;17.50;99.90;;;;;;5050065;28;20115;-75
2023/06/20 04:04:56;;;;;;;15.43;11.02;;;17.50;99.90;;;;;;5032539;28;20051;-77
2023/06/20 04:07:21;;;;;;;15.02;11.23;;;17.50;99.90;;;;;;5032240;28;20053;-76
2023/06/20 04:09:50;;;;;;;15.05;11.13;;;17.50;99.90;;;;;;5032473;28;20052;-76
2023/06/20 04:12:16;;;;;;;20.63;11.70;;;17.50;99.90;;;;;;5032197;28;20037;-74
2023/06/20 04:14:41;;;;;;;16.67;11.80;;;17.50;99.90;;;;;;5031586;28;20068;-76
2023/06/20 04:17:07;;;;;;;15.70;11.20;;;17.50;99.90;;;;;;5032215;28;20396;-75
2023/06/20 04:19:33;;;;;;;14.68;10.65;;;17.50;99.90;;;;;;5050136;28;20068;-76
2023/06/20 04:21:59;;;;;;;17.58;12.05;;;17.60;99.90;;;;;;5050195;28;20048;-75
2023/06/20 04:24:25;;;;;;;17.05;11.20;;;17.60;99.90;;;;;;5032108;28;20045;-75
2023/06/20 04:26:51;;;;;;;15.50;11.23;;;17.60;99.90;;;;;;5031832;28;20049;-76
2023/06/20 04:29:16;;;;;;;15.65;10.80;;;17.60;99.90;;;;;;5033734;28;20056;-76
2023/06/20 04:31:42;;;;;;;18.83;10.95;;;17.70;99.90;;;;;;5035810;28;20088;-76
2023/06/20 04:34:08;;;;;;;18.48;11.35;;;17.70;99.90;;;;;;5035822;28;20092;-74
2023/06/20 04:36:34;;;;;;;18.15;10.57;;;17.70;99.90;;;;;;5036233;28;20033;-76
2023/06/20 04:39:00;;;;;;;15.20;10.68;;;17.70;99.90;;;;;;5035676;28;20515;-76
2023/06/20 04:41:26;;;;;;;17.08;10.43;;;17.70;99.90;;;;;;5054048;28;20052;-75
2023/06/20 04:43:51;;;;;;;17.25;10.27;;;17.80;99.90;;;;;;5035829;28;20033;-75
2023/06/20 04:46:17;;;;;;;14.95;10.38;;;17.80;99.90;;;;;;5036000;28;20048;-75
2023/06/20 04:48:44;;;;;;;16.88;10.25;;;17.80;99.90;;;;;;5052556;28;20041;-76
2023/06/20 04:51:10;;;;;;;12.85;9.57;;;17.80;99.90;;;;;;5035781;28;20052;-75
2023/06/20 04:53:36;;;;;;;11.93;8.75;;;17.90;99.90;;;;;;5035840;28;20136;-75
2023/06/20 04:56:02;;;;;;;18.27;10.05;;;17.90;99.90;;;;;;5053701;28;20116;-76
2023/06/20 04:58:28;;;;;;;12.43;8.95;;;18.00;99.90;;;;;;5035933;28;20092;-74
2023/06/20 05:00:55;;;;;;;14.70;9.10;;;17.90;99.90;;;;;;5035848;28;20084;-75
2023/06/20 05:03:21;;;;;;;15.45;9.07;;;18.00;99.90;;;;;;5035352;28;20127;-75
2023/06/20 05:05:47;;;;;;;12.30;9.18;;;18.00;99.90;;;;;;5035951;28;20080;-75
2023/06/20 05:08:13;;;;;;;13.65;8.93;;;18.10;99.90;;;;;;5035606;28;20103;-76
2023/06/20 05:10:38;;;;;;;13.10;8.75;;;18.10;99.90;;;;;;5027149;28;20447;-76
2023/06/20 05:13:04;;;;;;;13.73;8.85;;;18.10;99.90;;;;;;5036037;28;20040;-76
2023/06/20 05:15:30;;;;;;;15.10;8.82;;;18.20;99.90;;;;;;5035763;28;20400;-76
2023/06/20 05:17:55;;;;;;;12.55;8.52;;;18.20;99.90;;;;;;5035387;28;20454;-75
2023/06/20 05:20:21;;;;;;;13.57;8.30;;;18.30;99.90;;;;;;5035610;28;20041;-77
2023/06/20 05:22:47;;;;;;;12.70;8.13;;;18.30;99.90;;;;;;5035250;28;20049;-75
2023/06/20 05:25:13;;;;;;;13.18;8.68;;;18.30;99.90;;;;;;5035203;28;20049;-75
2023/06/20 05:27:39;;;;;;;11.57;8.27;;;18.40;99.90;;;;;;5053082;28;20063;-75
2023/06/20 05:30:06;;;;;;;12.70;8.23;;;18.40;99.90;;;;;;5035444;28;20051;-75
2023/06/20 05:32:31;;;;;;;12.73;8.80;;;18.40;99.90;;;;;;5053470;28;20055;-75
2023/06/20 05:34:57;;;;;;;11.00;8.55;;;18.50;99.90;;;;;;5052857;28;20054;-76
2023/06/20 05:37:22;;;;;;;9.73;8.57;;;18.50;99.90;;;;;;5035475;28;20422;-75
2023/06/20 05:39:48;;;;;;;14.05;8.25;;;18.50;99.90;;;;;;5034592;28;20049;-76
2023/06/20 05:42:14;;;;;;;9.70;7.57;;;18.60;99.90;;;;;;5052947;28;20051;-76
2023/06/20 05:44:39;;;;;;;14.95;8.40;;;18.60;99.90;;;;;;5018383;28;20128;-76
2023/06/20 05:47:05;;;;;;;13.35;8.25;;;18.70;99.90;;;;;;5034612;28;20076;-77
2023/06/20 05:49:31;;;;;;;11.80;8.20;;;18.70;99.90;;;;;;5034801;28;20085;-77
2023/06/20 05:51:57;;;;;;;14.63;8.20;;;18.70;99.90;;;;;;5034865;28;20049;-76
2023/06/20 05:54:24;;;;;;;11.45;8.68;;;18.70;99.90;;;;;;5035041;28;20127;-77
2023/06/20 05:56:50;;;;;;;12.55;8.10;;;18.70;99.90;;;;;;5034605;28;20044;-76
2023/06/20 05:59:16;;;;;;;11.77;8.88;;;18.80;99.90;;;;;;5052517;28;20052;-76
2023/06/20 06:01:42;;;;;;;13.23;9.18;;;18.90;99.90;;;;;;5034491;28;20045;-75
2023/06/20 06:04:08;;;;;;;13.95;9.48;;;18.80;99.90;;;;;;5034212;28;20099;-75
2023/06/20 06:06:33;;;;;;;13.95;9.05;;;18.90;99.90;;;;;;5034342;28;20055;-76
2023/06/20 06:08:59;;;;;;;14.45;9.30;;;18.90;99.90;;;;;;5052410;28;20443;-75
2023/06/20 06:11:25;;;;;;;11.82;8.73;;;18.90;99.90;;;;;;5034350;28;20107;-76
2023/06/20 06:13:50;;;;;;;16.52;10.95;;;18.90;99.90;;;;;;5034361;28;20045;-76
2023/06/20 06:16:17;;;;;;;14.52;9.55;;;19.00;99.90;;;;;;5034366;28;20041;-74
2023/06/20 06:18:43;;;;;;;12.27;8.80;;;18.90;99.90;;;;;;5034152;28;20045;-76
2023/06/20 06:21:09;;;;;;;13.88;9.30;;;19.00;99.90;;;;;;5051897;28;20067;-76
2023/06/20 06:23:35;;;;;;;17.25;9.30;;;19.00;99.90;;;;;;5052402;28;20052;-77
2023/06/20 06:26:00;;;;;;;17.13;10.02;;;19.10;99.90;;;;;;5052328;28;20033;-76
2023/06/20 06:28:28;;;;;;;13.23;10.10;;;19.10;99.90;;;;;;5052058;28;20435;-75
2023/06/20 06:30:54;;;;;;;12.32;9.65;;;19.20;99.90;;;;;;5033777;28;20041;-75
2023/06/20 06:33:20;;;;;;;15.57;10.82;;;19.30;99.90;;;;;;5051871;28;20056;-76
2023/06/20 06:35:47;;;;;;;16.05;9.35;;;19.40;99.90;;;;;;5033549;28;20411;-75
2023/06/20 06:38:13;;;;;;;12.10;9.50;;;19.40;99.90;;;;;;5051841;28;20049;-75
2023/06/20 06:40:39;;;;;;;15.07;9.70;;;19.50;99.90;;;;;;5051862;28;20045;-77
2023/06/20 06:43:05;;;;;;;16.52;10.23;;;19.60;99.90;;;;;;5033856;28;20416;-77
2023/06/20 06:45:32;;;;;;;17.20;10.27;;;19.70;99.90;;;;;;5051836;28;20072;-77
2023/06/20 06:47:58;;;;;;;12.73;9.80;;;19.70;99.90;;;;;;5033453;28;20041;-75
2023/06/20 06:50:24;;;;;;;20.35;11.68;;;19.90;99.90;;;;;;5051507;28;20037;-76
2023/06/20 06:52:50;;;;;;;14.43;9.30;;;19.90;99.90;;;;;;5051221;28;20043;-75
2023/06/20 06:55:15;;;;;;;13.43;9.55;;;20.10;99.90;;;;;;5051481;28;20091;-75
2023/06/20 06:57:41;;;;;;;15.45;10.25;;;20.20;99.90;;;;;;5033763;28;20072;-75
2023/06/20 07:00:11;;;;;;;13.50;9.75;;;20.40;99.90;;;;;;5051334;28;20476;-77
2023/06/20 07:02:36;;;;;;;15.50;10.23;;;20.50;99.90;;;;;;5033493;28;20396;-77
2023/06/20 07:05:04;;;;;;;13.32;9.60;;;20.60;99.90;;;;;;5051360;28;20041;-76
2023/06/20 07:07:30;;;;;;;13.68;10.35;;;20.80;99.90;;;;;;5051111;28;20045;-78
2023/06/20 07:09:55;;;;;;;26.20;9.73;;;20.90;99.90;;;;;;5051254;28;20495;-77
2023/06/20 07:12:21;;;;;;;17.20;10.25;;;21.00;99.90;;;;;;5033212;28;20041;-77
2023/06/20 07:14:50;;;;;;;15.20;10.38;;;21.10;99.90;;;;;;5051159;28;20037;-76
2023/06/20 07:17:15;;;;;;;14.25;9.55;;;21.20;99.90;;;;;;5032887;28;20107;-75
2023/06/20 07:19:43;;;;;;;12.57;9.55;;;21.20;99.90;;;;;;5033252;28;20447;-76
2023/06/20 07:22:09;;;;;;;19.13;9.70;;;21.30;99.90;;;;;;5016336;28;20041;-76
2023/06/20 07:24:35;;;;;;;13.13;9.18;;;21.30;99.90;;;;;;5051269;28;20110;-78
2023/06/20 07:27:00;;;;;;;12.23;9.43;;;21.40;99.90;;;;;;5032912;28;20068;-75
2023/06/20 07:29:26;;;;;;;11.88;9.55;;;21.40;99.90;;;;;;5032849;28;20132;-76
2023/06/20 07:31:52;;;;;;;13.52;10.65;;;21.40;99.90;;;;;;5050449;28;20183;-76
2023/06/20 07:34:17;;;;;;;11.93;9.38;;;21.40;99.90;;;;;;5033043;28;20045;-75
2023/06/20 07:36:43;;;;;;;12.95;9.23;;;21.50;99.90;;;;;;5032902;28;20033;-76
2023/06/20 07:39:09;;;;;;;14.15;9.80;;;21.60;99.90;;;;;;5050981;28;20041;-77
2023/06/20 07:41:34;;;;;;;12.32;9.82;;;21.70;99.90;;;;;;5051058;28;20476;-76
2023/06/20 07:44:00;;;;;;;17.02;8.57;;;21.70;99.90;;;;;;5032641;28;20044;-77
2023/06/20 07:46:26;;;;;;;15.90;9.88;;;21.80;99.90;;;;;;5032838;28;20076;-77
2023/06/20 07:48:51;;;;;;;12.65;9.38;;;21.90;99.90;;;;;;5032591;28;20044;-76
2023/06/20 07:51:17;;;;;;;14.23;10.00;;;21.90;99.90;;;;;;5050513;28;20036;-77
2023/06/20 07:53:43;;;;;;;12.63;9.10;;;22.00;99.90;;;;;;5032709;28;20132;-77
2023/06/20 07:56:08;;;;;;;11.52;9.27;;;22.10;99.90;;;;;;5032570;28;20476;-77
2023/06/20 07:58:34;;;;;;;12.38;8.82;;;22.20;99.90;;;;;;5032641;28;20048;-76
2023/06/20 08:01:00;;;;;;;12.57;8.43;;;22.40;99.90;;;;;;5032774;28;20044;-77
2023/06/20 08:03:26;;;;;;;14.93;9.20;;;22.50;99.90;;;;;;5032284;28;20049;-76
2023/06/20 08:05:52;;;;;;;15.02;10.15;;;22.60;99.90;;;;;;5050632;28;20036;-76
2023/06/20 08:08:18;;;;;;;14.63;9.20;;;22.70;99.90;;;;;;5050204;28;20063;-76
2023/06/20 08:10:44;;;;;;;10.75;8.73;;;22.80;99.90;;;;;;5050453;28;20404;-76
2023/06/20 08:13:09;;;;;;;11.02;8.50;;;22.90;99.90;;;;;;5050276;28;20041;-75
2023/06/20 08:15:35;;;;;;;11.88;8.50;;;23.00;99.90;;;;;;5050197;28;20048;-76
2023/06/20 08:18:00;;;;;;;11.20;9.02;;;23.10;99.90;;;;;;5032513;28;20056;-77
2023/06/20 08:20:26;;;;;;;12.32;8.93;;;23.40;99.90;;;;;;5032103;28;20461;-77
2023/06/20 08:22:52;;;;;;;10.88;8.50;;;23.40;99.90;;;;;;5050081;28;20056;-75
2023/06/20 08:25:17;;;;;;;10.55;7.90;;;23.50;99.90;;;;;;5050009;28;20075;-77
2023/06/20 08:27:43;;;;;;;19.02;8.07;;;23.60;99.90;;;;;;5049696;28;20052;-77
2023/06/20 08:30:09;;;;;;;12.07;8.80;;;23.70;99.90;;;;;;5032401;28;20053;-76
2023/06/20 08:32:38;;;;;;;11.23;8.32;;;23.80;99.90;;;;;;5032077;28;20500;-77
2023/06/20 08:35:04;;;;;;;11.15;8.13;;;24.00;99.90;;;;;;5024057;28;20067;-77
2023/06/20 08:37:29;;;;;;;13.55;8.35;;;24.10;99.90;;;;;;5050319;28;20041;-76
2023/06/20 08:39:55;;;;;;;10.48;8.30;;;24.10;99.90;;;;;;5049630;28;20411;-77
2023/06/20 08:42:21;;;;;;;13.48;8.05;;;24.00;99.90;;;;;;5049941;28;20045;-76
2023/06/20 08:44:46;;;;;;;11.35;7.57;;;24.00;99.90;;;;;;5032297;28;20068;-76
2023/06/20 08:47:12;;;;;;;10.65;7.78;;;24.00;99.90;;;;;;5031960;28;20091;-76
2023/06/20 08:49:39;;;;;;;10.60;7.95;;;23.90;99.90;;;;;;5031743;28;20048;-77
2023/06/20 08:52:10;;;;;;;15.60;8.43;;;23.90;99.90;;;;;;5049906;28;20049;-76
2023/06/20 08:54:41;;;;;;;9.55;7.55;;;23.90;99.90;;;;;;5031929;28;20060;-79
2023/06/20 08:57:07;;;;;;;11.50;7.93;;;24.00;99.90;;;;;;5049727;28;20872;-76
2023/06/20 08:59:36;;;;;;;11.80;7.50;;;24.10;99.90;;;;;;5031906;28;20044;-76
2023/06/20 09:02:02;;;;;;;11.40;7.97;;;24.20;99.90;;;;;;5049774;28;20041;-75
2023/06/20 09:04:28;;;;;;;11.85;7.78;;;24.30;99.90;;;;;;5049778;28;20061;-76
2023/06/20 09:06:54;;;;;;;8.93;7.93;;;24.20;99.90;;;;;;5031518;28;20171;-77
2023/06/20 09:09:21;;;;;;;11.32;7.55;;;24.20;99.90;;;;;;5049103;28;20055;-78
2023/06/20 09:11:56;;;;;;;11.40;7.20;;;24.20;99.90;;;;;;5032121;28;20049;-76
2023/06/20 09:14:30;;;;;;;11.20;6.93;;;24.20;99.90;;;;;;5031712;28;20096;-76
2023/06/20 09:16:56;;;;;;;12.80;6.97;;;24.20;99.90;;;;;;5053295;28;20066;-76
2023/06/20 09:19:23;;;;;;;12.38;6.72;;;24.30;99.90;;;;;;5053511;28;20045;-75
2023/06/20 09:21:49;;;;;;;10.68;7.22;;;24.30;99.90;;;;;;5044937;28;20456;-76
2023/06/20 09:24:19;;;;;;;8.88;7.68;;;24.50;99.90;;;;;;5053147;28;20109;-76
2023/06/20 09:26:46;;;;;;;9.95;6.65;;;24.60;99.90;;;;;;5053000;28;20045;-76
2023/06/20 09:29:15;;;;;;;9.95;6.53;;;24.60;99.90;;;;;;5035169;28;20051;-78
2023/06/20 09:31:47;;;;;;;11.10;6.15;;;24.70;99.90;;;;;;5052792;28;20049;-75
2023/06/20 09:34:14;;;;;;;10.35;7.20;;;24.80;99.90;;;;;;5035458;28;20045;-76
2023/06/20 09:36:41;;;;;;;11.63;6.28;;;24.90;99.90;;;;;;5053002;28;20036;-75
2023/06/20 09:39:12;;;;;;;12.43;6.22;;;25.10;99.90;;;;;;5044846;28;20052;-77
2023/06/20 09:41:49;;;;;;;8.07;5.72;;;25.30;99.90;;;;;;5052920;28;20407;-76
2023/06/20 09:44:16;;;;;;;8.45;6.03;;;25.30;99.90;;;;;;5045135;28;20049;-79
2023/06/20 09:46:42;;;;;;;12.13;6.20;;;25.50;99.90;;;;;;5053053;28;20041;-76
2023/06/20 09:49:11;;;;;;;9.80;5.65;;;25.70;99.90;;;;;;5052770;28;20045;-76
2023/06/20 09:51:48;;;;;;;9.52;5.40;;;26.10;99.90;;;;;;5052772;28;20130;-77
2023/06/20 09:54:33;;;;;;;10.13;5.22;;;26.30;99.90;;;;;;5052576;28;20049;-78
2023/06/20 09:57:04;;;;;;;8.73;4.53;;;26.50;99.90;;;;;;5052235;28;20412;-76
2023/06/20 09:59:32;;;;;;;8.63;5.40;;;26.80;99.90;;;;;;5045084;28;20048;-77
2023/06/20 10:01:59;;;;;;;8.07;5.18;;;27.00;99.90;;;;;;5052856;28;20492;-77
2023/06/20 10:04:26;;;;;;;9.88;4.80;;;27.10;99.90;;;;;;5034718;28;20041;-76
2023/06/20 10:06:55;;;;;;;5.80;5.10;;;27.20;99.90;;;;;;5052541;28;20465;-76
2023/06/20 10:09:21;;;;;;;7.35;5.13;;;27.40;99.90;;;;;;5052446;28;20045;-77
2023/06/20 10:11:48;;;;;;;7.60;5.03;;;27.50;99.90;;;;;;5052302;28;20052;-78
2023/06/20 10:14:14;;;;;;;7.03;4.50;;;27.60;99.90;;;;;;5034609;28;20053;-75
2023/06/20 10:16:50;;;;;;;7.57;4.80;;;27.60;99.90;;;;;;5052214;28;20056;-77
2023/06/20 10:19:18;;;;;;;6.55;4.88;;;27.70;99.90;;;;;;5052198;28;20108;-77
2023/06/20 10:21:59;;;;;;;9.45;4.90;;;27.90;99.90;;;;;;5052090;28;20378;-75
2023/06/20 10:24:27;;;;;;;7.80;4.95;;;28.00;99.90;;;;;;5052207;28;20499;-78
2023/06/20 10:27:00;;;;;;;6.75;4.70;;;28.10;99.90;;;;;;5024512;28;20053;-76
2023/06/20 10:29:27;;;;;;;6.47;4.20;;;28.20;99.90;;;;;;5052300;28;20065;-77
2023/06/20 10:32:01;;;;;;;8.43;4.65;;;28.40;99.90;;;;;;5051862;28;20643;-76
2023/06/20 10:34:40;;;;;;;9.40;4.90;;;28.30;99.90;;;;;;5051905;28;20810;-78
2023/06/20 10:37:25;;;;;;;8.27;4.63;;;28.40;99.90;;;;;;5044183;28;20040;-76
2023/06/20 10:39:57;;;;;;;5.65;4.35;;;28.60;99.90;;;;;;5052176;28;20047;-76
2023/06/20 10:42:40;;;;;;;8.73;5.57;;;28.70;99.90;;;;;;5033894;28;20057;-76
2023/06/20 10:45:26;;;;;;;7.65;4.53;;;28.90;99.90;;;;;;5051718;28;20067;-77
2023/06/20 10:47:53;;;;;;;8.05;4.18;;;29.20;99.90;;;;;;5017460;28;20037;-77
2023/06/20 10:50:20;;;;;;;10.13;4.53;;;29.30;99.90;;;;;;5043856;28;20041;-75
2023/06/20 10:52:48;;;;;;;7.68;3.92;;;29.30;99.90;;;;;;5051880;28;20080;-78
2023/06/20 10:55:21;;;;;;;6.78;3.95;;;29.50;99.20;;;;;;5051456;28;20070;-77
2023/06/20 10:57:48;;;;;;;5.93;3.80;;;29.50;99.90;;;;;;5033641;28;20052;-81
2023/06/20 11:00:17;;;;;;;12.43;4.25;;;29.60;99.80;;;;;;5051383;28;20295;-77
2023/06/20 11:02:48;;;;;;;5.28;3.50;;;29.60;99.40;;;;;;5033412;28;20135;-77
2023/06/20 11:05:14;;;;;;;6.22;4.65;;;29.60;98.90;;;;;;5033379;28;20060;-77
2023/06/20 11:07:59;;;;;;;8.02;4.13;;;29.60;98.80;;;;;;5051363;28;20433;-77
2023/06/20 11:10:27;;;;;;;5.55;4.28;;;29.80;98.50;;;;;;5051169;28;20056;-76
2023/06/20 11:12:53;;;;;;;4.85;3.55;;;29.90;98.90;;;;;;5051134;28;20052;-77
2023/06/20 11:15:27;;;;;;;5.68;3.60;;;30.00;99.00;;;;;;5033182;28;20070;-76
2023/06/20 11:17:54;;;;;;;6.47;3.53;;;30.20;98.40;;;;;;5044117;28;20045;-76
2023/06/20 11:20:24;;;;;;;6.38;3.80;;;30.30;98.80;;;;;;5051153;28;20051;-76
2023/06/20 11:22:57;;;;;;;8.65;4.10;;;30.50;98.00;;;;;;5025271;28;20052;-78
2023/06/20 11:25:28;;;;;;;5.78;4.07;;;30.70;98.40;;;;;;5051052;28;20492;-76
2023/06/20 11:27:54;;;;;;;6.72;3.75;;;30.70;97.90;;;;;;5042423;28;20059;-75
2023/06/20 11:30:25;;;;;;;7.35;3.75;;;30.80;98.30;;;;;;5032999;28;20053;-77
2023/06/20 11:33:05;;;;;;;5.07;3.50;;;30.90;97.50;;;;;;5050712;28;20053;-77
2023/06/20 11:35:51;;;;;;;5.03;3.83;;;30.90;97.30;;;;;;5032805;28;20040;-76
2023/06/20 11:38:39;;;;;;;7.88;4.10;;;31.00;97.00;;;;;;5043946;28;20484;-77
2023/06/20 11:41:08;;;;;;;6.70;4.10;;;30.90;96.90;;;;;;5032685;28;20063;-77
2023/06/20 11:43:42;;;;;;;7.38;4.57;;;31.00;97.20;;;;;;5050540;28;20033;-78
2023/06/20 11:46:08;;;;;;;6.82;4.60;;;31.20;97.40;;;;;;5050778;28;20154;-80
2023/06/20 11:48:35;;;;;;;10.48;4.57;;;31.20;97.40;;;;;;5050559;28;20049;-78
2023/06/20 11:51:07;;;;;;;6.70;4.30;;;31.20;97.40;;;;;;5050458;28;20044;-77
2023/06/20 11:53:36;;;;;;;6.07;3.90;;;31.20;96.90;;;;;;5050603;28;20041;-78
2023/06/20 11:56:04;;;;;;;6.53;4.40;;;31.30;96.80;;;;;;5050368;28;20128;-78
2023/06/20 11:58:41;;;;;;;6.22;4.30;;;31.10;97.40;;;;;;5050157;28;20500;-76
2023/06/20 12:01:14;;;;;;;7.70;4.20;;;31.20;96.80;;;;;;5050122;28;20059;-77
2023/06/20 12:03:41;;;;;;;6.97;4.30;;;31.20;96.80;;;;;;5050602;28;20049;-77
2023/06/20 12:06:41;;;;;;;7.70;3.60;;;31.20;97.20;;;;;;5032435;28;20053;-78
2023/06/20 12:09:11;;;;;;;7.50;3.90;;;31.50;96.50;;;;;;5046324;28;20055;-76
2023/06/20 12:11:52;;;;;;;6.38;3.90;;;31.40;96.60;;;;;;5032269;28;20045;-77
2023/06/20 12:14:19;;;;;;;7.72;4.13;;;31.50;95.20;;;;;;5050084;28;20045;-76
2023/06/20 12:16:45;;;;;;;5.57;3.67;;;31.30;96.30;;;;;;5032470;28;20434;-80
2023/06/20 12:19:11;;;;;;;4.63;3.55;;;31.20;95.80;;;;;;5015876;28;20059;-78
2023/06/20 12:21:40;;;;;;;5.65;3.85;;;31.00;96.30;;;;;;5032302;28;20084;-77
2023/06/20 12:24:10;;;;;;;9.73;4.40;;;30.80;96.20;;;;;;5032168;28;20539;-78
2023/06/20 12:26:36;;;;;;;5.80;3.50;;;30.90;96.10;;;;;;5032446;28;20053;-76
2023/06/20 12:29:02;;;;;;;6.25;3.92;;;31.00;96.20;;;;;;5050417;28;20045;-76
2023/06/20 12:31:28;;;;;;;5.68;3.63;;;31.00;96.10;;;;;;5049756;28;20056;-76
2023/06/20 12:33:54;;;;;;;6.05;3.85;;;30.90;96.00;;;;;;5032064;28;20049;-76
2023/06/20 12:36:20;;;;;;;5.10;3.28;;;31.00;95.70;;;;;;5050055;28;20041;-77
2023/06/20 12:38:46;;;;;;;5.75;3.67;;;31.10;95.10;;;;;;5031694;28;20044;-77
2023/06/20 12:41:11;;;;;;;4.68;3.55;;;31.30;95.40;;;;;;5032083;28;20049;-76